Chicago, IL

4:13 AM CDT on August 30, 2015 (GMT -0500)
West Loop - Old St. Pats | | Change Station
CLOSE
Current Station
Personal Weather Station
Location: Chicago, IL
Elevation: 548 ft
Nearby Weather Stations

Elev 548 ft 41.88 °N, 87.64 °W | Updated 8 seconds ago

Overcast
Overcast
64.3 °F
Feels Like 64.3 °F
N
1.0
Wind Variable Wind from East
Gusts 2.0 mph

Today
High -- | Low -- °F
--% Chance of Precip.
Yesterday
High -- | Low -- °F
Precip. -- in
6:13 AM 7:27 PM
Waxing Gibbous, 99% visible
Pressure 30.00 in
Visibility 4.0 miles
Clouds Overcast 500 ft
Dew Point 63 °F
Humidity 95%
Rainfall 0.00 in
Snow Depth Not available.
UV 0 out of 12
Pollen 1.10 out of 12
Air Quality Not available.
Flu Activity Not available.
METAR KMDW 300853Z 35003KT 4SM BR OVC005 19/17 A3002 RMK AO2 SLP158 T01940172 56001 $
Pressure 30.00 in
Visibility 4.0 miles
Clouds Overcast 500 ft
Dew Point 63 °F
Humidity 95%
Rainfall 0.00 in
Snow Depth Not available.
UV 0 out of 12
Pollen 1.10 out of 12
Air Quality Not available.
Flu Activity Not available.
METAR KMDW 300853Z 35003KT 4SM BR OVC005 19/17 A3002 RMK AO2 SLP158 T01940172 56001 $

10-Day Weather Forecast

×

Almanac

Astronomy

Aug. 30, 2015 Rise Set
Actual Time
Civil Twilight
Nautical Twilight
Astronomical Twilight
Moon
Length of Visible Light
Length of Day
Tomorrow will be .
, % of the Moon is Illuminated

Today's Extremes

State Highs State Lows

Community

WunderPhotos

Upload Photos

1,850,909 photos uploaded!

WunderBlogs® & News

Nearby

Air Quality

  Air Quality AQ Index Pollutant
Not available.

Snow Depth

Station Depth Elevation

Earthquake Activity

City Distance Mag. Time & Date
Minimum magnitude displayed is 2.5.

Coastal Water Temperatures

Place Temperature

Stations

Nearby Weather Stations

Station Location Temp. Windchill Dew Point Humidity Wind Precip. Elev Updated Type